Terminal Aerodrome Forecast
Issued by NWS Charleston, SC

Home | Current Version | Previous Version | Text Only | Print | Product List | Glossary On
Versions: 1 2 3 4 5 6 7 8 9 10 11 12 13 14 15 16 17
000
FTUS42 KCHS 022339
TAFSAV
TAF
KSAV 022339Z 0300/0324 24010G16KT P6SM VCTS SCT040CB BKN070
     FM030200 24007KT P6SM BKN050
     FM031600 25010G16KT P6SM FEW050 BKN080
     FM032000 23011G18KT P6SM VCTS BKN035CB=

USA.gov is the U.S. government's official web portal to all federal, state and local government web resources and services.